ZLXY/XIY METAR and TAF weather

Enter ICAO airport designator
Station Type Date Time Source
ZLXY METAR 2021/08/04 19:00 UTC NOAA

ZLXY 041900Z 23001MPS 9999 FEW060 27/21 Q1005 NOSIG


Station Type Date Time Source
ZLXY Decoded METAR 2021/08/04 19:00 UTC NOAA

Xian/Xianyang, China (ZLXY) 34-26N 108-45E
Aug 04, 2021 - 03:00 PM EDT / 2021.08.04 1900 UTC
Wind: from the SW (230 degrees) at 2 MPH (2 KT):0
Visibility: greater than 7 mile(s):0
Sky conditions: mostly clear
Temperature: 80 F (27 C)
Dew Point: 69 F (21 C)
Relative Humidity: 69%
Pressure (altimeter): 29.68 in. Hg (1005 hPa)
ob: ZLXY 041900Z 23001MPS 9999 FEW060 27/21 Q1005 NOSIG
cycle: 19

Station Type Date Time Source
ZLXY TAF 2021/08/04 18:03 UTC NOAA

TAF ZLXY 041503Z 0418/0518 06003MPS 5000 HZ NSC TX34/0507Z TN25/0422Z

Example: see airport list